sensor_id;sensor_type;location;lat;lon;timestamp;pressure;altitude;pressure_sealevel;temperature;humidity
77737;BME280;66903;59.926;30.404;2023-01-20T00:00:19;101108.28;;;24.32;39.19
77737;BME280;66903;59.926;30.404;2023-01-20T00:05:28;101116.22;;;24.35;39.19
77737;BME280;66903;59.926;30.404;2023-01-20T00:10:47;101111.38;;;24.36;38.98
77737;BME280;66903;59.926;30.404;2023-01-20T00:21:22;101109.09;;;24.38;38.90
77737;BME280;66903;59.926;30.404;2023-01-20T00:26:23;101116.19;;;24.40;38.98
77737;BME280;66903;59.926;30.404;2023-01-20T00:31:26;101112.75;;;24.43;38.94
77737;BME280;66903;59.926;30.404;2023-01-20T00:42:08;101105.28;;;24.47;38.57
77737;BME280;66903;59.926;30.404;2023-01-20T00:47:33;101103.03;;;24.44;38.54
77737;BME280;66903;59.926;30.404;2023-01-20T00:52:43;101105.28;;;24.47;38.26
77737;BME280;66903;59.926;30.404;2023-01-20T00:57:43;101108.69;;;24.49;38.62
77737;BME280;66903;59.926;30.404;2023-01-20T01:08:31;101104.19;;;24.43;38.52
77737;BME280;66903;59.926;30.404;2023-01-20T01:13:32;101103.53;;;24.51;37.98
77737;BME280;66903;59.926;30.404;2023-01-20T01:18:42;101104.94;;;24.54;38.24
77737;BME280;66903;59.926;30.404;2023-01-20T01:24:01;101098.38;;;24.53;37.93
77737;BME280;66903;59.926;30.404;2023-01-20T01:29:02;101095.25;;;24.50;37.74
77737;BME280;66903;59.926;30.404;2023-01-20T01:39:46;101090.34;;;24.55;38.01
77737;BME280;66903;59.926;30.404;2023-01-20T01:45:14;101089.81;;;24.53;38.08
77737;BME280;66903;59.926;30.404;2023-01-20T02:01:27;101139.47;;;24.57;37.75
77737;BME280;66903;59.926;30.404;2023-01-20T02:06:31;101148.59;;;24.59;38.00
77737;BME280;66903;59.926;30.404;2023-01-20T02:11:38;101172.59;;;24.58;37.47
77737;BME280;66903;59.926;30.404;2023-01-20T02:23:23;101169.13;;;24.61;37.80
77737;BME280;66903;59.926;30.404;2023-01-20T02:45:55;101194.31;;;24.59;37.39
77737;BME280;66903;59.926;30.404;2023-01-20T02:51:24;101195.47;;;24.53;37.66
77737;BME280;66903;59.926;30.404;2023-01-20T02:56:47;101193.19;;;24.55;38.01
77737;BME280;66903;59.926;30.404;2023-01-20T03:02:19;101196.91;;;24.56;37.97
77737;BME280;66903;59.926;30.404;2023-01-20T03:07:44;101194.88;;;24.56;38.03
77737;BME280;66903;59.926;30.404;2023-01-20T03:13:42;101181.50;;;24.52;37.88
77737;BME280;66903;59.926;30.404;2023-01-20T03:18:49;101180.03;;;24.54;38.18
77737;BME280;66903;59.926;30.404;2023-01-20T03:23:52;101179.50;;;24.52;38.18
77737;BME280;66903;59.926;30.404;2023-01-20T03:28:53;101178.84;;;24.60;37.49
77737;BME280;66903;59.926;30.404;2023-01-20T03:45:51;101161.72;;;24.60;37.71
77737;BME280;66903;59.926;30.404;2023-01-20T03:50:57;101178.56;;;24.62;37.57
77737;BME280;66903;59.926;30.404;2023-01-20T04:01:33;101183.97;;;24.63;37.71
77737;BME280;66903;59.926;30.404;2023-01-20T04:06:36;101179.13;;;24.64;37.31
77737;BME280;66903;59.926;30.404;2023-01-20T04:23:04;101162.63;;;23.63;37.98
77737;BME280;66903;59.926;30.404;2023-01-20T04:28:05;101157.00;;;23.48;37.92
77737;BME280;66903;59.926;30.404;2023-01-20T04:33:06;101169.00;;;23.45;38.38
77737;BME280;66903;59.926;30.404;2023-01-20T04:38:06;101175.25;;;23.42;38.94
77737;BME280;66903;59.926;30.404;2023-01-20T04:43:07;101195.19;;;23.47;39.02
77737;BME280;66903;59.926;30.404;2023-01-20T04:48:09;101185.56;;;23.38;39.24
77737;BME280;66903;59.926;30.404;2023-01-20T04:53:11;101193.53;;;23.36;39.48
77737;BME280;66903;59.926;30.404;2023-01-20T04:58:12;101175.56;;;23.41;39.22
77737;BME280;66903;59.926;30.404;2023-01-20T05:03:13;101164.72;;;23.43;39.07
77737;BME280;66903;59.926;30.404;2023-01-20T05:08:13;101165.84;;;23.47;38.77
77737;BME280;66903;59.926;30.404;2023-01-20T05:13:14;101153.00;;;23.44;38.58
77737;BME280;66903;59.926;30.404;2023-01-20T05:18:15;101163.53;;;23.54;38.11
77737;BME280;66903;59.926;30.404;2023-01-20T05:23:16;101165.84;;;23.47;38.05
77737;BME280;66903;59.926;30.404;2023-01-20T05:28:17;101170.66;;;23.51;37.67
77737;BME280;66903;59.926;30.404;2023-01-20T05:33:17;101173.25;;;23.48;38.03
77737;BME280;66903;59.926;30.404;2023-01-20T05:38:17;101180.81;;;23.77;37.26
77737;BME280;66903;59.926;30.404;2023-01-20T05:43:18;101190.69;;;23.95;37.15
77737;BME280;66903;59.926;30.404;2023-01-20T05:48:18;101173.56;;;23.95;36.68
77737;BME280;66903;59.926;30.404;2023-01-20T05:53:19;101178.16;;;23.96;36.51
77737;BME280;66903;59.926;30.404;2023-01-20T05:58:19;101179.22;;;24.15;36.04
77737;BME280;66903;59.926;30.404;2023-01-20T06:03:20;101190.66;;;24.05;36.09
77737;BME280;66903;59.926;30.404;2023-01-20T06:08:20;101188.13;;;23.98;35.96
77737;BME280;66903;59.926;30.404;2023-01-20T06:13:21;101190.97;;;23.98;36.46
77737;BME280;66903;59.926;30.404;2023-01-20T06:18:22;101195.53;;;24.04;36.07
77737;BME280;66903;59.926;30.404;2023-01-20T06:23:24;101196.97;;;24.02;35.76
77737;BME280;66903;59.926;30.404;2023-01-20T06:28:24;101176.41;;;24.10;35.70
77737;BME280;66903;59.926;30.404;2023-01-20T06:33:25;101179.25;;;24.10;35.42
77737;BME280;66903;59.926;30.404;2023-01-20T06:38:28;101185.56;;;24.02;35.86
77737;BME280;66903;59.926;30.404;2023-01-20T06:43:30;101192.13;;;24.02;35.93
77737;BME280;66903;59.926;30.404;2023-01-20T06:48:32;101202.69;;;24.02;35.66
77737;BME280;66903;59.926;30.404;2023-01-20T06:53:33;101190.69;;;24.00;35.70
77737;BME280;66903;59.926;30.404;2023-01-20T06:58:33;101201.25;;;24.04;35.38
77737;BME280;66903;59.926;30.404;2023-01-20T07:03:34;101191.56;;;24.00;35.46
77737;BME280;66903;59.926;30.404;2023-01-20T07:08:35;101198.97;;;24.06;35.05
77737;BME280;66903;59.926;30.404;2023-01-20T07:13:36;101189.84;;;24.04;35.13
77737;BME280;66903;59.926;30.404;2023-01-20T07:18:37;101183.81;;;24.06;35.32
77737;BME280;66903;59.926;30.404;2023-01-20T07:23:38;101194.94;;;24.07;35.06
77737;BME280;66903;59.926;30.404;2023-01-20T07:39:31;101194.97;;;24.02;35.36
77737;BME280;66903;59.926;30.404;2023-01-20T07:44:32;101200.28;;;24.19;35.24
77737;BME280;66903;59.926;30.404;2023-01-20T07:49:32;101214.56;;;24.24;35.10
77737;BME280;66903;59.926;30.404;2023-01-20T07:54:33;101210.72;;;24.39;35.09
77737;BME280;66903;59.926;30.404;2023-01-20T07:59:34;101222.94;;;24.49;34.99
77737;BME280;66903;59.926;30.404;2023-01-20T08:04:34;101234.44;;;24.39;34.84
77737;BME280;66903;59.926;30.404;2023-01-20T08:09:35;101239.00;;;24.35;35.33
77737;BME280;66903;59.926;30.404;2023-01-20T08:14:35;101241.84;;;24.40;35.30
77737;BME280;66903;59.926;30.404;2023-01-20T08:19:36;101241.25;;;24.87;34.88
77737;BME280;66903;59.926;30.404;2023-01-20T08:24:36;101241.34;;;25.05;35.31
77737;BME280;66903;59.926;30.404;2023-01-20T08:29:37;101251.13;;;24.99;35.75
77737;BME280;66903;59.926;30.404;2023-01-20T08:34:37;101250.47;;;25.07;36.04
77737;BME280;66903;59.926;30.404;2023-01-20T08:39:38;101260.28;;;25.01;35.60
77737;BME280;66903;59.926;30.404;2023-01-20T08:44:38;101265.19;;;24.47;35.93
77737;BME280;66903;59.926;30.404;2023-01-20T08:49:39;101262.53;;;24.22;36.28
77737;BME280;66903;59.926;30.404;2023-01-20T08:54:39;101257.38;;;24.19;37.12
77737;BME280;66903;59.926;30.404;2023-01-20T08:59:40;101250.56;;;24.15;36.24
77737;BME280;66903;59.926;30.404;2023-01-20T09:04:40;101238.63;;;24.08;36.16
77737;BME280;66903;59.926;30.404;2023-01-20T09:09:41;101228.09;;;23.93;35.89
77737;BME280;66903;59.926;30.404;2023-01-20T09:14:41;101230.13;;;23.83;35.93
77737;BME280;66903;59.926;30.404;2023-01-20T09:19:42;101227.28;;;23.83;35.74
77737;BME280;66903;59.926;30.404;2023-01-20T09:24:42;101232.47;;;23.71;35.34
77737;BME280;66903;59.926;30.404;2023-01-20T09:29:43;101252.59;;;24.09;35.27
77737;BME280;66903;59.926;30.404;2023-01-20T09:34:43;101253.00;;;24.37;34.77
77737;BME280;66903;59.926;30.404;2023-01-20T09:39:44;101263.22;;;24.48;34.38
77737;BME280;66903;59.926;30.404;2023-01-20T09:45:22;101264.59;;;24.55;34.45
77737;BME280;66903;59.926;30.404;2023-01-20T09:50:38;101262.34;;;24.52;34.21
77737;BME280;66903;59.926;30.404;2023-01-20T09:56:14;101253.16;;;24.55;34.30
77737;BME280;66903;59.926;30.404;2023-01-20T10:01:38;101247.94;;;24.67;33.95
77737;BME280;66903;59.926;30.404;2023-01-20T10:06:53;101245.38;;;24.66;34.16
77737;BME280;66903;59.926;30.404;2023-01-20T10:12:14;101267.06;;;24.67;34.29
77737;BME280;66903;59.926;30.404;2023-01-20T10:17:26;101274.81;;;24.66;34.13
77737;BME280;66903;59.926;30.404;2023-01-20T10:22:41;101276.25;;;24.64;33.74
77737;BME280;66903;59.926;30.404;2023-01-20T10:28:05;101281.06;;;24.73;34.33
77737;BME280;66903;59.926;30.404;2023-01-20T10:33:13;101292.16;;;24.80;34.38
77737;BME280;66903;59.926;30.404;2023-01-20T10:38:20;101286.41;;;24.85;34.23
77737;BME280;66903;59.926;30.404;2023-01-20T10:43:24;101287.84;;;24.82;34.41
77737;BME280;66903;59.926;30.404;2023-01-20T10:48:45;101297.00;;;24.79;34.36
77737;BME280;66903;59.926;30.404;2023-01-20T10:59:16;101295.53;;;24.87;34.36
77737;BME280;66903;59.926;30.404;2023-01-20T11:04:20;101321.81;;;24.89;34.11
77737;BME280;66903;59.926;30.404;2023-01-20T11:09:41;101317.25;;;24.88;34.46
77737;BME280;66903;59.926;30.404;2023-01-20T11:14:43;101324.94;;;24.92;34.63
77737;BME280;66903;59.926;30.404;2023-01-20T11:20:04;101328.34;;;24.94;34.68
77737;BME280;66903;59.926;30.404;2023-01-20T11:25:21;101328.88;;;24.96;34.56
77737;BME280;66903;59.926;30.404;2023-01-20T11:30:31;101318.31;;;24.97;34.21
77737;BME280;66903;59.926;30.404;2023-01-20T11:35:33;101323.16;;;24.96;34.29
77737;BME280;66903;59.926;30.404;2023-01-20T11:40:33;101329.75;;;24.97;33.96
77737;BME280;66903;59.926;30.404;2023-01-20T11:45:35;101326.03;;;25.01;34.01
77737;BME280;66903;59.926;30.404;2023-01-20T11:50:41;101325.16;;;25.01;34.02
77737;BME280;66903;59.926;30.404;2023-01-20T11:55:52;101318.88;;;24.99;34.14
77737;BME280;66903;59.926;30.404;2023-01-20T12:01:06;101316.03;;;24.99;34.25
77737;BME280;66903;59.926;30.404;2023-01-20T12:06:27;101339.22;;;24.92;34.68
77737;BME280;66903;59.926;30.404;2023-01-20T12:11:34;101342.34;;;24.96;35.91
77737;BME280;66903;59.926;30.404;2023-01-20T12:16:38;101339.50;;;24.96;36.12
77737;BME280;66903;59.926;30.404;2023-01-20T12:21:46;101336.94;;;24.94;35.82
77737;BME280;66903;59.926;30.404;2023-01-20T12:26:48;101335.81;;;24.90;35.85
77737;BME280;66903;59.926;30.404;2023-01-20T12:31:49;101342.66;;;24.94;35.93
77737;BME280;66903;59.926;30.404;2023-01-20T12:37:22;101352.00;;;25.00;36.01
77737;BME280;66903;59.926;30.404;2023-01-20T13:04:09;101397.66;;;24.71;34.86
77737;BME280;66903;59.926;30.404;2023-01-20T13:14:42;101410.81;;;24.62;34.54
77737;BME280;66903;59.926;30.404;2023-01-20T13:19:44;101414.78;;;24.61;35.16
77737;BME280;66903;59.926;30.404;2023-01-20T13:24:51;101417.69;;;24.56;35.40
77737;BME280;66903;59.926;30.404;2023-01-20T13:29:55;101414.84;;;24.51;35.31
77737;BME280;66903;59.926;30.404;2023-01-20T13:34:56;101429.75;;;24.43;34.96
77737;BME280;66903;59.926;30.404;2023-01-20T13:39:58;101424.91;;;24.34;34.87
77737;BME280;66903;59.926;30.404;2023-01-20T13:50:31;101418.25;;;24.58;34.28
77737;BME280;66903;59.926;30.404;2023-01-20T14:00:47;101423.69;;;24.70;35.35
77737;BME280;66903;59.926;30.404;2023-01-20T14:05:50;101430.38;;;24.25;35.34
77737;BME280;66903;59.926;30.404;2023-01-20T14:10:51;101417.88;;;23.91;35.48
77737;BME280;66903;59.926;30.404;2023-01-20T14:16:02;101412.47;;;23.69;35.24
77737;BME280;66903;59.926;30.404;2023-01-20T14:26:26;101432.16;;;23.71;35.43
77737;BME280;66903;59.926;30.404;2023-01-20T14:36:31;101434.72;;;23.77;35.26
77737;BME280;66903;59.926;30.404;2023-01-20T14:41:43;101453.28;;;23.70;34.85
77737;BME280;66903;59.926;30.404;2023-01-20T14:46:44;101469.25;;;23.76;35.45
77737;BME280;66903;59.926;30.404;2023-01-20T14:52:03;101475.53;;;23.73;35.17
77737;BME280;66903;59.926;30.404;2023-01-20T15:02:32;101504.06;;;23.78;35.11
77737;BME280;66903;59.926;30.404;2023-01-20T15:07:33;101516.88;;;23.95;35.33
77737;BME280;66903;59.926;30.404;2023-01-20T15:18:16;101526.53;;;24.55;34.78
77737;BME280;66903;59.926;30.404;2023-01-20T15:23:33;101519.94;;;24.74;35.21
77737;BME280;66903;59.926;30.404;2023-01-20T15:28:40;101530.78;;;24.77;34.45
77737;BME280;66903;59.926;30.404;2023-01-20T15:33:42;101547.63;;;24.74;34.45
77737;BME280;66903;59.926;30.404;2023-01-20T15:38:43;101558.50;;;24.77;34.41
77737;BME280;66903;59.926;30.404;2023-01-20T15:43:44;101574.53;;;24.43;34.47
77737;BME280;66903;59.926;30.404;2023-01-20T15:48:45;101579.44;;;24.17;34.66
77737;BME280;66903;59.926;30.404;2023-01-20T15:53:45;101596.78;;;23.95;34.58
77737;BME280;66903;59.926;30.404;2023-01-20T15:58:46;101614.53;;;24.43;34.58
77737;BME280;66903;59.926;30.404;2023-01-20T16:03:47;101639.34;;;24.67;33.98
77737;BME280;66903;59.926;30.404;2023-01-20T16:08:50;101649.06;;;24.81;34.06
77737;BME280;66903;59.926;30.404;2023-01-20T16:13:51;101659.63;;;24.86;33.92
77737;BME280;66903;59.926;30.404;2023-01-20T16:18:51;101677.06;;;24.94;34.10
77737;BME280;66903;59.926;30.404;2023-01-20T16:23:52;101690.50;;;24.94;33.88
77737;BME280;66903;59.926;30.404;2023-01-20T16:28:55;101694.78;;;24.91;33.78
77737;BME280;66903;59.926;30.404;2023-01-20T16:33:55;101699.66;;;24.96;33.96
77737;BME280;66903;59.926;30.404;2023-01-20T16:38:56;101708.78;;;24.93;33.84
77737;BME280;66903;59.926;30.404;2023-01-20T16:43:56;101707.34;;;24.40;34.58
77737;BME280;66903;59.926;30.404;2023-01-20T16:48:58;101713.03;;;24.20;34.51
77737;BME280;66903;59.926;30.404;2023-01-20T16:54:00;101706.16;;;24.11;35.69
77737;BME280;66903;59.926;30.404;2023-01-20T16:59:02;101734.72;;;24.16;35.75
77737;BME280;66903;59.926;30.404;2023-01-20T17:04:03;101738.72;;;24.10;35.56
77737;BME280;66903;59.926;30.404;2023-01-20T17:09:04;101746.91;;;23.96;35.64
77737;BME280;66903;59.926;30.404;2023-01-20T17:14:07;101768.59;;;23.87;35.94
77737;BME280;66903;59.926;30.404;2023-01-20T17:19:08;101779.69;;;23.84;36.32
77737;BME280;66903;59.926;30.404;2023-01-20T17:24:10;101787.66;;;23.77;36.42
77737;BME280;66903;59.926;30.404;2023-01-20T17:29:10;101788.78;;;23.81;36.28
77737;BME280;66903;59.926;30.404;2023-01-20T17:34:11;101799.63;;;23.79;36.45
77737;BME280;66903;59.926;30.404;2023-01-20T17:39:11;101806.19;;;23.74;36.42
77737;BME280;66903;59.926;30.404;2023-01-20T17:44:12;101806.19;;;23.79;36.14
77737;BME280;66903;59.926;30.404;2023-01-20T17:49:12;101819.22;;;23.60;36.62
77737;BME280;66903;59.926;30.404;2023-01-20T17:54:13;101834.88;;;23.58;36.56
77737;BME280;66903;59.926;30.404;2023-01-20T17:59:14;101853.09;;;23.47;36.39
77737;BME280;66903;59.926;30.404;2023-01-20T18:04:15;101859.63;;;23.47;36.65
77737;BME280;66903;59.926;30.404;2023-01-20T18:09:15;101859.94;;;23.51;38.07
77737;BME280;66903;59.926;30.404;2023-01-20T18:14:16;101869.91;;;23.48;37.79
77737;BME280;66903;59.926;30.404;2023-01-20T18:19:16;101874.19;;;23.51;38.23
77737;BME280;66903;59.926;30.404;2023-01-20T18:24:17;101863.72;;;23.61;38.60
77737;BME280;66903;59.926;30.404;2023-01-20T18:29:17;101868.28;;;23.57;39.70
77737;BME280;66903;59.926;30.404;2023-01-20T18:34:18;101885.38;;;23.57;38.91
77737;BME280;66903;59.926;30.404;2023-01-20T18:39:21;101905.03;;;23.54;38.88
77737;BME280;66903;59.926;30.404;2023-01-20T18:44:22;101899.34;;;23.54;38.92
77737;BME280;66903;59.926;30.404;2023-01-20T18:49:22;101897.72;;;23.68;39.62
77737;BME280;66903;59.926;30.404;2023-01-20T18:54:23;101895.25;;;23.81;39.12
77737;BME280;66903;59.926;30.404;2023-01-20T18:59:25;101922.94;;;23.86;37.68
77737;BME280;66903;59.926;30.404;2023-01-20T19:04:25;101960.47;;;23.63;37.14
77737;BME280;66903;59.926;30.404;2023-01-20T19:09:26;101973.22;;;23.55;36.43
77737;BME280;66903;59.926;30.404;2023-01-20T19:14:26;101986.47;;;24.03;35.41
77737;BME280;66903;59.926;30.404;2023-01-20T19:19:27;101990.31;;;24.24;34.41
77737;BME280;66903;59.926;30.404;2023-01-20T19:24:27;102009.00;;;24.51;34.57
77737;BME280;66903;59.926;30.404;2023-01-20T19:29:28;102034.88;;;24.71;34.96
77737;BME280;66903;59.926;30.404;2023-01-20T19:34:29;102049.66;;;24.68;35.21
77737;BME280;66903;59.926;30.404;2023-01-20T19:39:30;102061.00;;;24.48;35.80
77737;BME280;66903;59.926;30.404;2023-01-20T19:44:30;102076.16;;;24.54;36.10
77737;BME280;66903;59.926;30.404;2023-01-20T19:49:31;102087.78;;;24.42;35.85
77737;BME280;66903;59.926;30.404;2023-01-20T19:54:31;102106.44;;;24.13;36.78
77737;BME280;66903;59.926;30.404;2023-01-20T19:59:32;102105.69;;;23.96;37.60
77737;BME280;66903;59.926;30.404;2023-01-20T20:04:33;102102.53;;;23.92;37.07
77737;BME280;66903;59.926;30.404;2023-01-20T20:09:33;102092.16;;;24.13;36.70
77737;BME280;66903;59.926;30.404;2023-01-20T20:14:35;102097.69;;;24.30;36.34
77737;BME280;66903;59.926;30.404;2023-01-20T20:19:36;102102.59;;;24.34;36.25
77737;BME280;66903;59.926;30.404;2023-01-20T20:24:36;102102.00;;;24.32;35.99
77737;BME280;66903;59.926;30.404;2023-01-20T20:29:37;102107.75;;;24.37;35.85
77737;BME280;66903;59.926;30.404;2023-01-20T20:34:37;102128.31;;;24.34;36.01
77737;BME280;66903;59.926;30.404;2023-01-20T20:39:38;102156.91;;;24.39;35.94
77737;BME280;66903;59.926;30.404;2023-01-20T20:44:38;102168.59;;;24.38;36.09
77737;BME280;66903;59.926;30.404;2023-01-20T20:49:40;102172.66;;;24.42;35.79
77737;BME280;66903;59.926;30.404;2023-01-20T20:54:40;102167.72;;;24.37;35.71
77737;BME280;66903;59.926;30.404;2023-01-20T21:00:15;102174.66;;;24.46;35.54
77737;BME280;66903;59.926;30.404;2023-01-20T21:05:22;102173.47;;;24.42;35.35
77737;BME280;66903;59.926;30.404;2023-01-20T21:10:23;102187.44;;;24.39;35.73
77737;BME280;66903;59.926;30.404;2023-01-20T21:15:36;102201.41;;;24.35;35.50
77737;BME280;66903;59.926;30.404;2023-01-20T21:20:39;102199.75;;;24.39;35.28
77737;BME280;66903;59.926;30.404;2023-01-20T21:25:40;102199.69;;;24.34;35.34
77737;BME280;66903;59.926;30.404;2023-01-20T21:31:18;102208.28;;;24.34;35.34
77737;BME280;66903;59.926;30.404;2023-01-20T21:36:21;102226.00;;;24.36;35.20
77737;BME280;66903;59.926;30.404;2023-01-20T21:41:43;102240.88;;;24.38;35.54
77737;BME280;66903;59.926;30.404;2023-01-20T21:52:37;102249.38;;;24.33;35.24
77737;BME280;66903;59.926;30.404;2023-01-20T21:57:41;102265.06;;;24.31;35.23
77737;BME280;66903;59.926;30.404;2023-01-20T22:03:19;102283.28;;;24.25;35.13
77737;BME280;66903;59.926;30.404;2023-01-20T22:08:25;102299.63;;;24.29;39.05
77737;BME280;66903;59.926;30.404;2023-01-20T22:13:48;102318.03;;;24.17;38.88
77737;BME280;66903;59.926;30.404;2023-01-20T22:19:03;102330.84;;;24.14;38.90
77737;BME280;66903;59.926;30.404;2023-01-20T22:24:07;102348.50;;;24.33;39.01
77737;BME280;66903;59.926;30.404;2023-01-20T22:34:39;102370.06;;;24.45;38.73
77737;BME280;66903;59.926;30.404;2023-01-20T22:39:49;102373.44;;;24.42;38.42
77737;BME280;66903;59.926;30.404;2023-01-20T22:51:23;102378.81;;;24.39;38.41
77737;BME280;66903;59.926;30.404;2023-01-20T22:56:26;102381.41;;;24.40;38.32
77737;BME280;66903;59.926;30.404;2023-01-20T23:01:31;102374.84;;;24.40;37.81
77737;BME280;66903;59.926;30.404;2023-01-20T23:06:33;102385.41;;;24.39;37.80
77737;BME280;66903;59.926;30.404;2023-01-20T23:11:35;102409.47;;;24.43;37.28
77737;BME280;66903;59.926;30.404;2023-01-20T23:16:40;102422.59;;;24.44;37.23
77737;BME280;66903;59.926;30.404;2023-01-20T23:21:41;102416.56;;;24.41;37.39
77737;BME280;66903;59.926;30.404;2023-01-20T23:26:41;102423.69;;;24.38;36.83
77737;BME280;66903;59.926;30.404;2023-01-20T23:37:38;102457.16;;;24.43;36.73
77737;BME280;66903;59.926;30.404;2023-01-20T23:42:39;102467.75;;;24.47;36.12
